Time;durP1;ratioP1;P1;durP2;ratioP2;P2;SDS_P1;SDS_P2;PMS_P1;PMS_P2;Temp;Humidity;BMP_temperature;BMP_pressure;BME280_temperature;BME280_humidity;BME280_pressure;Samples;Min_cycle;Max_cycle;Signal;HPM_P1;HPM_P2
2021/12/23 00:01:49;;;;;;;24.75;10.25;;;;;;;-6.61;69.56;100350.06;1712067;82;20959;-85
2021/12/23 00:04:15;;;;;;;28.30;10.85;;;;;;;-6.60;69.72;100345.10;1711354;82;21002;-85
2021/12/23 00:06:44;;;;;;;22.67;8.93;;;;;;;-6.62;69.52;100345.39;1700597;81;21058;-85
2021/12/23 00:09:12;;;;;;;25.50;8.95;;;;;;;-6.65;69.57;100344.31;1682510;82;21114;-85
2021/12/23 00:11:39;;;;;;;35.95;10.98;;;;;;;-6.68;70.06;100341.61;1682433;84;21011;-85
2021/12/23 00:14:09;;;;;;;28.17;10.13;;;;;;;-6.72;69.63;100344.33;1681753;84;21034;-85
2021/12/23 00:16:47;;;;;;;30.35;12.03;;;;;;;-6.74;70.08;100342.09;1688419;81;21023;-85
2021/12/23 00:19:35;;;;;;;18.60;8.48;;;;;;;-6.77;70.59;100344.41;1711331;81;21062;-84
2021/12/23 00:24:42;;;;;;;23.30;9.93;;;;;;;-6.82;70.03;100347.05;1738847;81;21012;-85
2021/12/23 00:27:10;;;;;;;16.82;8.28;;;;;;;-6.87;70.07;100347.13;1726050;82;21015;-86
2021/12/23 00:29:38;;;;;;;19.30;9.20;;;;;;;-6.88;70.63;100348.80;1719982;80;21116;-86
2021/12/23 00:32:08;;;;;;;29.57;10.68;;;;;;;-6.88;70.80;100350.45;1685748;83;21054;-85
2021/12/23 00:34:37;;;;;;;19.07;8.78;;;;;;;-6.92;70.99;100349.37;1699929;79;21620;-86
2021/12/23 00:37:08;;;;;;;20.90;9.73;;;;;;;-7.07;71.21;100331.95;1693307;85;21078;-86
2021/12/23 00:39:33;;;;;;;23.95;10.18;;;;;;;-6.90;71.46;100354.50;1693422;84;21283;-86
2021/12/23 00:42:06;;;;;;;22.85;9.28;;;;;;;-6.90;71.46;100354.50;1717383;83;20979;-85
2021/12/23 00:44:30;;;;;;;25.85;10.93;;;;;;;-6.96;71.11;100343.64;1719325;82;21023;-86
2021/12/23 00:46:56;;;;;;;31.45;9.45;;;;;;;-6.96;71.11;100343.64;1746021;82;21058;-85
2021/12/23 00:49:23;;;;;;;22.48;9.40;;;;;;;-6.94;71.27;100344.97;1717709;82;21084;-86
2021/12/23 00:51:50;;;;;;;24.32;9.68;;;;;;;-6.93;71.62;100336.63;1718129;80;21138;-82
2021/12/23 00:54:17;;;;;;;30.80;10.82;;;;;;;-6.95;70.84;100343.24;1720022;84;21152;-85
2021/12/23 00:56:48;;;;;;;31.45;12.45;;;;;;;-6.95;71.19;100344.50;1720483;83;21079;-85
2021/12/23 00:59:12;;;;;;;27.48;11.78;;;;;;;-6.98;70.42;100346.81;1719894;82;21067;-85
2021/12/23 01:01:39;;;;;;;16.12;7.28;;;;;;;-7.04;70.64;100341.87;1702561;81;21105;-84
2021/12/23 01:04:08;;;;;;;24.90;9.58;;;;;;;-7.07;71.14;100341.66;1699836;80;21165;-84
2021/12/23 01:06:35;;;;;;;29.27;10.20;;;;;;;-7.08;70.85;100335.23;1693573;84;21047;-85
2021/12/23 01:09:03;;;;;;;30.55;13.28;;;;;;;-7.07;71.37;100335.34;1693859;83;21075;-85
2021/12/23 01:11:30;;;;;;;26.25;11.00;;;;;;;-7.03;71.79;100336.02;1693854;84;21304;-84
2021/12/23 01:14:03;;;;;;;27.93;10.68;;;;;;;-7.02;71.46;100336.92;1693944;84;21301;-84
2021/12/23 01:17:42;;;;;;;16.37;10.75;;;;;;;-7.02;71.32;100327.68;1693811;84;21122;-84
2021/12/23 01:19:11;;;;;;;23.55;9.23;;;;;;;-6.99;71.15;100329.52;1712189;80;21064;-84
2021/12/23 01:21:35;;;;;;;100.30;27.05;;;;;;;-6.95;71.26;100331.86;1716242;82;21072;-83
2021/12/23 01:24:04;;;;;;;41.48;14.75;;;;;;;-6.97;70.74;100330.89;1750329;82;21063;-83
2021/12/23 01:26:31;;;;;;;32.13;10.88;;;;;;;-7.01;70.53;100334.87;1729989;82;21082;-84
2021/12/23 01:28:59;;;;;;;25.05;9.75;;;;;;;-7.03;70.33;100336.42;1725671;81;21053;-83
2021/12/23 01:31:29;;;;;;;29.17;9.40;;;;;;;-7.12;70.51;100320.64;1734555;78;21136;-82
2021/12/23 01:33:56;;;;;;;29.48;9.78;;;;;;;-7.07;70.83;100332.81;1703109;82;21058;-85
2021/12/23 01:36:24;;;;;;;16.82;7.08;;;;;;;-7.03;70.61;100327.57;1676856;81;21160;-85
2021/12/23 01:38:54;;;;;;;20.00;8.90;;;;;;;-7.05;70.71;100324.94;1695269;83;21091;-84
2021/12/23 01:41:23;;;;;;;18.95;7.45;;;;;;;-7.01;71.00;100326.02;1695660;84;21064;-86
2021/12/23 01:43:53;;;;;;;26.57;10.50;;;;;;;-6.97;70.98;100327.09;1682659;80;21025;-85
2021/12/23 01:46:22;;;;;;;29.07;9.45;;;;;;;-6.93;70.97;100331.58;1716839;79;21123;-85
2021/12/23 01:48:50;;;;;;;26.70;9.65;;;;;;;-6.94;70.76;100319.33;1742856;81;21063;-86
2021/12/23 01:51:17;;;;;;;18.82;8.25;;;;;;;-6.92;70.86;100316.88;1742765;82;21078;-84
2021/12/23 01:53:45;;;;;;;22.85;10.05;;;;;;;-6.91;70.80;100312.32;1715174;83;21075;-85
2021/12/23 01:56:12;;;;;;;19.65;7.60;;;;;;;-6.89;70.66;100309.50;1720700;81;20991;-84
2021/12/23 01:58:41;;;;;;;21.20;7.17;;;;;;;-6.91;70.40;100316.11;1719575;82;20999;-85
2021/12/23 02:01:18;;;;;;;23.07;8.35;;;;;;;-6.93;70.79;100312.61;1720231;80;21691;-83
2021/12/23 02:03:45;;;;;;;21.02;9.15;;;;;;;-6.93;70.79;100308.81;1630648;86;21099;-85
2021/12/23 02:06:12;;;;;;;19.48;7.53;;;;;;;-6.96;70.51;100312.03;1670007;84;21051;-85
2021/12/23 02:08:40;;;;;;;28.55;8.40;;;;;;;-7.00;70.69;100290.73;1648177;86;21043;-85
2021/12/23 02:11:10;;;;;;;15.80;6.78;;;;;;;-7.00;70.69;100290.73;1667475;84;21028;-85
2021/12/23 02:13:38;;;;;;;17.10;8.35;;;;;;;-6.98;70.56;100300.05;1677256;84;21125;-86
2021/12/23 02:18:52;;;;;;;20.45;7.67;;;;;;;-7.00;70.72;100288.60;1686705;83;20992;-85
2021/12/23 02:21:19;;;;;;;21.30;8.18;;;;;;;-6.97;70.66;100290.44;1680371;84;21032;-84
2021/12/23 02:23:46;;;;;;;11.60;6.45;;;;;;;-6.96;70.73;100285.85;1686909;83;21033;-85
2021/12/23 02:26:13;;;;;;;15.48;6.55;;;;;;;-6.98;70.64;100289.58;1686460;84;21026;-85
2021/12/23 02:28:39;;;;;;;16.62;6.35;;;;;;;-6.95;70.86;100291.41;1686642;84;21022;-85
2021/12/23 02:31:06;;;;;;;20.60;7.65;;;;;;;-6.95;70.73;100279.64;1686412;83;21065;-85
2021/12/23 02:33:34;;;;;;;21.42;7.03;;;;;;;-6.91;70.89;100279.45;1695007;83;21023;-86
2021/12/23 02:36:03;;;;;;;17.50;7.55;;;;;;;-6.89;70.71;100288.00;1684596;78;21662;-84
2021/12/23 02:38:30;;;;;;;23.15;9.75;;;;;;;-6.89;70.73;100289.27;1651129;86;21087;-85
2021/12/23 02:40:57;;;;;;;25.25;10.53;;;;;;;-6.87;70.71;100288.58;1631824;86;21101;-85
2021/12/23 02:43:27;;;;;;;27.93;10.20;;;;;;;-6.81;70.63;100285.57;1660634;86;21065;-83
2021/12/23 02:45:58;;;;;;;24.43;10.72;;;;;;;-6.81;70.75;100264.08;1656542;84;21281;-85
2021/12/23 02:48:34;;;;;;;23.98;10.13;;;;;;;-6.81;70.75;100264.08;1643347;83;21114;-84
2021/12/23 02:51:08;;;;;;;19.32;8.98;;;;;;;-6.75;70.51;100267.38;1664207;83;21048;-85
2021/12/23 02:53:36;;;;;;;19.60;9.43;;;;;;;-6.74;70.48;100264.95;1645856;85;21034;-84
2021/12/23 02:56:07;;;;;;;20.77;7.80;;;;;;;-6.74;70.43;100268.75;1642609;87;20976;-84
2021/12/23 02:58:34;;;;;;;27.98;7.58;;;;;;;-6.73;70.26;100265.42;1643105;86;21081;-84
2021/12/23 03:01:07;;;;;;;21.07;8.35;;;;;;;-6.75;70.33;100261.92;1646935;87;21075;-84
2021/12/23 03:03:33;;;;;;;23.25;8.60;;;;;;;-6.74;70.33;100265.32;1632226;87;21077;-84
2021/12/23 03:06:00;;;;;;;16.07;7.60;;;;;;;-6.75;70.24;100259.80;1632553;84;21084;-83
2021/12/23 03:08:43;;;;;;;16.10;7.53;;;;;;;-6.76;70.13;100259.30;1632546;86;21050;-83
2021/12/23 03:11:13;;;;;;;18.35;7.25;;;;;;;-6.77;70.16;100249.98;1632400;87;21357;-85
2021/12/23 03:13:41;;;;;;;22.93;8.08;;;;;;;-6.86;70.23;100247.76;1635396;86;21067;-84
2021/12/23 03:16:09;;;;;;;21.40;6.70;;;;;;;-6.85;70.54;100252.89;1637342;86;21043;-85
2021/12/23 03:18:36;;;;;;;15.13;7.22;;;;;;;-6.83;70.61;100252.98;1635969;86;21078;-85
2021/12/23 03:21:05;;;;;;;21.68;6.03;;;;;;;-6.93;70.04;100248.14;1637243;86;21043;-83
2021/12/23 03:23:32;;;;;;;15.20;7.40;;;;;;;-6.96;70.40;100258.05;1653241;86;20941;-84
2021/12/23 03:26:00;;;;;;;22.80;7.42;;;;;;;-6.97;70.13;100251.25;1675246;83;21039;-85
2021/12/23 03:28:27;;;;;;;21.00;7.05;;;;;;;-7.20;70.35;100230.06;1637289;88;21035;-84
2021/12/23 03:30:54;;;;;;;10.82;6.10;;;;;;;-7.06;70.71;100249.90;1637030;88;21070;-85
2021/12/23 03:33:20;;;;;;;16.67;7.78;;;;;;;-7.05;70.87;100246.97;1637295;88;20987;-84
2021/12/23 03:35:48;;;;;;;21.25;7.25;;;;;;;-7.04;71.16;100251.27;1654905;84;21127;-85
2021/12/23 03:38:16;;;;;;;16.95;7.35;;;;;;;-7.04;71.19;100248.34;1684773;84;21001;-86
2021/12/23 03:40:44;;;;;;;29.95;7.50;;;;;;;-7.05;70.80;100252.89;1698598;84;21091;-85
2021/12/23 03:43:12;;;;;;;18.67;6.95;;;;;;;-7.05;71.13;100250.77;1682463;84;21041;-85
2021/12/23 03:45:39;;;;;;;14.95;6.92;;;;;;;-7.04;71.14;100256.32;1680514;85;21026;-85
2021/12/23 03:48:06;;;;;;;18.75;7.17;;;;;;;-7.03;71.21;100252.60;1716722;82;20996;-86
2021/12/23 03:50:33;;;;;;;20.35;8.50;;;;;;;-7.01;71.31;100252.31;1697842;84;21004;-84
2021/12/23 03:52:59;;;;;;;25.88;9.28;;;;;;;-7.03;71.35;100247.55;1685345;85;21079;-85
2021/12/23 03:55:27;;;;;;;23.05;7.78;;;;;;;-7.02;71.33;100248.05;1685451;85;20935;-85
2021/12/23 03:57:54;;;;;;;24.27;9.53;;;;;;;-7.00;71.29;100252.81;1685545;85;20953;-85
2021/12/23 04:00:22;;;;;;;18.20;8.13;;;;;;;-7.00;70.98;100251.95;1685454;85;20992;-85
2021/12/23 04:02:52;;;;;;;19.65;6.87;;;;;;;-7.02;71.12;100249.71;1685324;82;21033;-84
2021/12/23 04:05:21;;;;;;;23.22;8.53;;;;;;;-7.03;71.06;100247.55;1683181;82;21093;-84
2021/12/23 04:07:48;;;;;;;35.17;12.20;;;;;;;-7.13;70.54;100247.75;1688094;84;20973;-85
2021/12/23 04:10:21;;;;;;;42.78;9.45;;;;;;;-7.26;70.92;100248.99;1724632;81;21007;-85
2021/12/23 04:12:50;;;;;;;22.95;8.38;;;;;;;-7.30;71.08;100246.68;1709163;80;21082;-84
2021/12/23 04:15:18;;;;;;;20.00;8.95;;;;;;;-7.34;70.88;100246.36;1782484;77;21098;-85
2021/12/23 04:17:45;;;;;;;27.50;10.18;;;;;;;-7.33;71.63;100262.03;1759504;80;21027;-85
2021/12/23 04:20:19;;;;;;;28.20;9.83;;;;;;;-7.34;71.83;100257.37;1759569;81;21011;-86
2021/12/23 04:22:45;;;;;;;24.47;11.78;;;;;;;-7.30;72.05;100257.16;1757918;81;21011;-85
2021/12/23 04:25:14;;;;;;;29.95;13.85;;;;;;;-7.28;72.30;100261.92;1748178;82;21095;-85
2021/12/23 04:27:43;;;;;;;48.15;11.83;;;;;;;-7.26;72.33;100261.27;1757397;82;21035;-85
2021/12/23 04:30:11;;;;;;;26.17;11.68;;;;;;;-7.23;72.21;100255.13;1755802;82;21010;-85
2021/12/23 04:32:39;;;;;;;26.70;11.83;;;;;;;-7.22;72.23;100259.42;1751380;82;21100;-85
2021/12/23 04:35:07;;;;;;;40.20;13.28;;;;;;;-7.22;72.00;100263.61;1748478;82;21019;-85
2021/12/23 04:37:34;;;;;;;51.40;22.22;;;;;;;-7.22;72.00;100263.61;1749161;82;21038;-85
2021/12/23 04:40:08;;;;;;;62.65;22.05;;;;;;;-7.21;72.25;100260.28;1759579;79;21010;-84
2021/12/23 04:42:35;;;;;;;52.60;19.85;;;;;;;-7.21;72.20;100254.83;1759494;82;21023;-84
2021/12/23 04:45:05;;;;;;;37.00;12.73;;;;;;;-7.18;72.27;100263.02;1759671;80;20971;-85
2021/12/23 04:47:32;;;;;;;33.33;13.43;;;;;;;-7.19;72.07;100253.67;1759934;82;21067;-86
2021/12/23 04:49:59;;;;;;;33.92;13.43;;;;;;;-7.19;72.12;100257.47;1759753;81;21002;-86
2021/12/23 04:52:26;;;;;;;33.80;13.15;;;;;;;-7.18;72.12;100250.75;1759644;82;20998;-84
2021/12/23 04:54:53;;;;;;;25.10;11.00;;;;;;;-7.18;71.95;100250.39;1759523;81;21026;-86
2021/12/23 04:57:20;;;;;;;24.98;10.50;;;;;;;-7.21;71.81;100247.25;1759529;80;21047;-86
2021/12/23 04:59:48;;;;;;;27.62;11.33;;;;;;;-7.22;71.88;100248.05;1756984;82;21004;-87
2021/12/23 05:02:15;;;;;;;21.42;10.85;;;;;;;-7.22;71.89;100253.50;1759907;80;21278;-86
2021/12/23 05:04:43;;;;;;;30.10;10.80;;;;;;;-7.23;71.71;100253.00;1759555;82;21095;-86
2021/12/23 05:07:10;;;;;;;29.02;10.32;;;;;;;-7.25;71.94;100249.50;1758389;80;20974;-86
2021/12/23 05:09:37;;;;;;;23.05;10.30;;;;;;;-7.25;71.86;100248.23;1759565;81;21070;-86
2021/12/23 05:12:05;;;;;;;28.85;11.53;;;;;;;-7.28;71.81;100252.70;1759701;80;21006;-86
2021/12/23 05:14:32;;;;;;;18.77;9.70;;;;;;;-7.27;71.77;100249.39;1760228;80;20983;-86
2021/12/23 05:16:59;;;;;;;61.35;19.07;;;;;;;-7.30;71.62;100244.52;1780933;80;21028;-86
2021/12/23 05:19:25;;;;;;;43.23;16.30;;;;;;;-7.36;71.25;100249.18;1762886;78;21042;-85
2021/12/23 05:21:58;;;;;;;57.05;16.17;;;;;;;-7.47;70.80;100249.37;1780545;81;21003;-86
2021/12/23 05:24:25;;;;;;;41.58;16.17;;;;;;;-7.48;71.04;100245.47;1780017;81;21011;-86
2021/12/23 05:26:51;;;;;;;44.90;14.53;;;;;;;-7.50;70.92;100253.34;1780539;81;20988;-86
2021/12/23 05:29:18;;;;;;;57.60;20.82;;;;;;;-7.52;70.85;100249.84;1767444;81;21019;-86
2021/12/23 05:31:45;;;;;;;64.53;24.20;;;;;;;-7.55;71.06;100252.18;1779285;81;21057;-85
2021/12/23 05:34:12;;;;;;;70.40;23.42;;;;;;;-7.52;71.42;100250.73;1780529;81;21015;-85
2021/12/23 05:36:39;;;;;;;74.25;28.50;;;;;;;-7.51;71.44;100251.61;1780415;81;21095;-86
2021/12/23 05:39:06;;;;;;;74.22;24.87;;;;;;;-7.56;71.23;100247.89;1780414;81;21038;-86
2021/12/23 05:41:33;;;;;;;62.23;25.32;;;;;;;-7.60;71.31;100241.75;1762870;81;21032;-84
2021/12/23 05:43:59;;;;;;;33.13;14.63;;;;;;;-7.61;71.83;100240.02;1742953;80;21083;-86
2021/12/23 05:46:29;;;;;;;59.48;24.85;;;;;;;-7.62;71.40;100241.68;1776812;80;20985;-86
2021/12/23 05:49:04;;;;;;;34.85;13.35;;;;;;;-7.65;71.32;100243.98;1777075;81;21008;-86
2021/12/23 05:51:31;;;;;;;18.75;8.65;;;;;;;-7.67;71.09;100239.63;1754426;80;21062;-85
2021/12/23 05:53:58;;;;;;;26.65;10.80;;;;;;;-7.72;70.65;100235.52;1731725;77;21067;-84
2021/12/23 05:56:25;;;;;;;25.97;11.20;;;;;;;-7.80;70.95;100237.92;1720149;83;21035;-84
2021/12/23 05:58:51;;;;;;;27.30;9.73;;;;;;;-7.84;71.07;100235.97;1725122;79;21277;-84
2021/12/23 06:01:18;;;;;;;21.85;9.60;;;;;;;-7.91;70.81;100237.22;1733417;79;21016;-86
2021/12/23 06:03:47;;;;;;;21.25;10.20;;;;;;;-7.93;70.90;100239.17;1719635;80;21016;-86
2021/12/23 06:06:15;;;;;;;31.25;10.63;;;;;;;-7.91;71.61;100236.36;1748717;79;21072;-85
2021/12/23 06:08:43;;;;;;;33.60;12.82;;;;;;;-7.93;71.23;100240.03;1780582;80;21024;-85
2021/12/23 06:11:10;;;;;;;42.38;15.58;;;;;;;-7.90;71.33;100240.22;1740964;81;21050;-85
2021/12/23 06:13:40;;;;;;;35.48;12.07;;;;;;;-7.90;71.44;100244.40;1740617;83;21104;-85
2021/12/23 06:16:06;;;;;;;43.13;14.63;;;;;;;-7.87;71.57;100245.88;1714838;82;20957;-87
2021/12/23 06:18:33;;;;;;;38.50;17.92;;;;;;;-7.88;71.78;100252.59;1740973;79;21070;-87
2021/12/23 06:21:01;;;;;;;38.50;15.20;;;;;;;-7.88;71.78;100249.16;1735407;78;21150;-85
2021/12/23 06:23:31;;;;;;;47.98;16.00;;;;;;;-7.88;71.75;100258.90;1723365;82;21075;-87
2021/12/23 06:26:04;;;;;;;32.10;12.75;;;;;;;-7.90;71.68;100254.11;1766423;78;21102;-84
2021/12/23 06:28:31;;;;;;;33.95;14.15;;;;;;;-7.88;71.40;100260.52;1723724;79;21083;-85
2021/12/23 06:30:58;;;;;;;38.28;13.43;;;;;;;-7.88;71.77;100263.95;1721718;79;21219;-87
2021/12/23 06:33:25;;;;;;;21.82;10.38;;;;;;;-7.80;71.71;100264.07;1723111;80;20983;-84
2021/12/23 06:35:52;;;;;;;25.68;10.53;;;;;;;-7.75;71.19;100264.36;1723622;83;21041;-85
2021/12/23 06:38:19;;;;;;;35.30;13.30;;;;;;;-7.72;71.21;100255.71;1716930;81;20991;-86
2021/12/23 06:40:46;;;;;;;22.73;11.08;;;;;;;-7.68;71.00;100266.89;1717175;81;20988;-86
2021/12/23 06:43:15;;;;;;;29.35;9.20;;;;;;;-7.69;70.78;100261.37;1718163;81;21003;-85
2021/12/23 06:45:45;;;;;;;19.82;9.83;;;;;;;-7.63;70.67;100264.30;1723906;80;21042;-85
2021/12/23 06:48:12;;;;;;;30.20;8.80;;;;;;;-7.62;69.97;100261.88;1723721;82;21053;-83
2021/12/23 06:50:39;;;;;;;19.32;8.23;;;;;;;-7.59;70.19;100264.98;1724218;81;21285;-85
2021/12/23 06:53:06;;;;;;;31.40;11.18;;;;;;;-7.51;70.36;100263.84;1724206;80;21058;-85
2021/12/23 06:55:33;;;;;;;28.92;9.88;;;;;;;-7.44;70.36;100271.41;1694213;82;21044;-84
2021/12/23 07:00:50;;;;;;;20.15;9.95;;;;;;;-7.30;70.31;100273.58;1669622;80;21086;-84
2021/12/23 07:03:17;;;;;;;41.50;14.35;;;;;;;-7.16;70.30;100270.67;1679806;79;21186;-85
2021/12/23 07:06:05;;;;;;;26.00;12.85;;;;;;;-7.05;70.45;100267.20;1701499;80;21078;31
2021/12/23 07:08:29;;;;;;;40.50;11.10;;;;;;;-7.02;69.94;100268.67;1728020;78;21039;-87
2021/12/23 07:10:55;;;;;;;31.10;9.38;;;;;;;-6.94;69.97;100264.97;1757395;78;21091;-85
2021/12/23 07:13:22;;;;;;;26.95;11.33;;;;;;;-6.85;70.15;100255.81;1754463;80;21286;-86
2021/12/23 07:15:49;;;;;;;20.65;9.20;;;;;;;-6.75;70.06;100245.48;1780960;79;21051;-86
2021/12/23 07:18:29;;;;;;;25.03;7.63;;;;;;;-6.64;69.93;100250.83;1719717;79;21169;31
2021/12/23 07:20:56;;;;;;;17.12;6.85;;;;;;;-6.64;69.93;100250.83;1697241;83;21094;-84
2021/12/23 07:23:39;;;;;;;20.50;8.03;;;;;;;-6.47;69.95;100257.31;1753798;78;21155;31
2021/12/23 07:26:12;;;;;;;45.17;10.68;;;;;;;-6.34;69.75;100256.02;1710372;79;21104;31
2021/12/23 07:28:39;;;;;;;21.52;9.55;;;;;;;-6.20;69.64;100255.19;1737650;78;21100;-86
2021/12/23 07:34:00;;;;;;;26.10;10.32;;;;;;;-6.12;68.21;100255.66;1772411;80;21015;-84
2021/12/23 07:36:27;;;;;;;31.62;13.30;;;;;;;-6.02;69.24;100258.35;1752572;79;21106;-83
2021/12/23 07:38:56;;;;;;;26.87;11.90;;;;;;;-6.03;67.83;100256.59;1747153;81;21239;-83
2021/12/23 07:41:25;;;;;;;25.90;11.35;;;;;;;-6.01;67.97;100249.95;1766605;80;21027;-82
2021/12/23 07:43:58;;;;;;;24.60;10.40;;;;;;;-5.88;68.02;100245.21;1752346;79;21120;-82
2021/12/23 07:46:28;;;;;;;28.52;11.60;;;;;;;-5.73;66.88;100240.16;1769375;79;20988;-83
2021/12/23 07:48:56;;;;;;;33.33;12.85;;;;;;;-5.61;67.53;100235.78;1766883;80;20991;-82
2021/12/23 07:51:24;;;;;;;35.52;11.03;;;;;;;-5.50;67.17;100225.02;1763041;80;21071;-82
2021/12/23 07:53:53;;;;;;;27.62;10.88;;;;;;;-5.42;67.03;100226.33;1758645;81;20958;-81
2021/12/23 07:56:22;;;;;;;25.43;10.38;;;;;;;-5.32;66.27;100229.86;1737396;80;21061;-82
2021/12/23 08:07:15;;;;;;;17.30;6.80;;;;;;;-5.16;65.75;100220.58;1732734;79;21153;-83
2021/12/23 08:12:44;;;;;;;13.53;6.62;;;;;;;-5.11;65.35;100213.71;1757749;79;21110;-81
2021/12/23 08:15:11;;;;;;;26.15;7.30;;;;;;;-5.11;65.35;100213.71;1691269;83;21007;-82
2021/12/23 08:17:38;;;;;;;25.45;8.98;;;;;;;-5.10;66.71;100200.23;1692894;84;21078;-84
2021/12/23 08:20:08;;;;;;;25.62;9.93;;;;;;;-5.10;66.71;100200.23;1715741;79;21070;-84
2021/12/23 08:22:35;;;;;;;16.20;7.33;;;;;;;-5.22;66.32;100200.83;1694122;81;21090;-78
2021/12/23 08:25:02;;;;;;;24.43;7.90;;;;;;;-5.22;65.87;100204.62;1682750;84;21060;-83
2021/12/23 08:27:30;;;;;;;20.35;6.92;;;;;;;-5.25;66.05;100205.74;1701858;79;21103;-82
2021/12/23 08:29:57;;;;;;;33.83;14.95;;;;;;;-5.25;66.05;100205.74;1694440;83;21027;-84
2021/12/23 08:32:24;;;;;;;23.85;6.35;;;;;;;-5.26;65.40;100205.25;1675391;83;21111;-82
2021/12/23 08:34:50;;;;;;;25.88;11.80;;;;;;;-5.30;65.09;100196.99;1692628;84;21060;-83
2021/12/23 08:40:37;;;;;;;24.12;7.87;;;;;;;-5.22;66.23;100192.81;1738748;78;21131;31
2021/12/23 08:46:07;;;;;;;20.35;7.15;;;;;;;-5.14;66.17;100181.84;1724187;80;21067;-85
2021/12/23 08:51:51;;;;;;;22.32;9.80;;;;;;;-5.09;66.23;100169.40;1757397;78;21097;-83
2021/12/23 08:54:35;;;;;;;26.07;9.90;;;;;;;-5.14;65.83;100172.09;1759745;78;21098;31
2021/12/23 08:57:05;;;;;;;38.23;12.20;;;;;;;-5.12;65.71;100164.17;1708758;79;21019;-84
2021/12/23 08:59:33;;;;;;;29.15;11.78;;;;;;;-5.09;66.20;100155.45;1739072;78;21120;-86
2021/12/23 09:08:07;;;;;;;30.23;12.45;;;;;;;-4.95;66.29;100152.02;1727096;78;21143;-82
2021/12/23 09:10:34;;;;;;;35.33;13.50;;;;;;;-4.88;66.33;100147.73;1704999;84;21048;-82
2021/12/23 09:13:03;;;;;;;58.05;18.65;;;;;;;-4.84;66.49;100141.17;1705008;80;21012;-85
2021/12/23 09:15:30;;;;;;;28.30;11.10;;;;;;;-4.78;66.65;100125.41;1740698;78;21072;-85
2021/12/23 09:17:58;;;;;;;30.35;11.30;;;;;;;-4.72;66.24;100121.52;1728709;79;21105;-85
2021/12/23 09:23:42;;;;;;;33.70;12.37;;;;;;;-4.58;66.32;100107.41;1694837;78;28370;-83
2021/12/23 09:26:23;;;;;;;31.87;10.75;;;;;;;-4.51;65.80;100094.25;1745186;78;21057;31
2021/12/23 09:28:57;;;;;;;56.90;21.10;;;;;;;-4.47;65.72;100094.47;1746989;79;21070;-85
2021/12/23 09:37:43;;;;;;;33.20;11.53;;;;;;;-4.29;65.02;100085.64;1755673;78;22406;31
2021/12/23 09:43:14;;;;;;;21.23;8.28;;;;;;;-4.18;64.23;100071.34;1695393;80;21123;-82
2021/12/23 09:45:54;;;;;;;25.23;8.63;;;;;;;-4.12;64.67;100061.07;1693819;79;21099;31
2021/12/23 09:48:22;;;;;;;14.87;7.33;;;;;;;-4.12;64.33;100062.34;1713556;79;21126;-81
2021/12/23 09:53:58;;;;;;;27.75;9.73;;;;;;;-3.97;63.17;100057.16;1702604;79;21133;-83
2021/12/23 09:56:29;;;;;;;20.20;6.20;;;;;;;-3.88;61.03;100053.80;1695082;85;21001;-82
2021/12/23 09:58:59;;;;;;;11.97;5.50;;;;;;;-3.77;63.04;100054.70;1715562;79;21141;-83
2021/12/23 10:01:31;;;;;;;20.48;6.37;;;;;;;-3.78;61.16;100057.62;1712194;83;21014;-84
2021/12/23 10:06:44;;;;;;;15.28;5.87;;;;;;;-3.63;59.72;100058.35;1726719;83;21149;-85
2021/12/23 10:09:14;;;;;;;11.75;5.45;;;;;;;-3.54;60.35;100051.95;1703088;82;21107;-82
2021/12/23 10:31:45;;;;;;;16.70;5.78;;;;;;;-2.84;59.03;100000.85;1730850;80;21066;-83
2021/12/23 10:37:21;;;;;;;19.92;8.73;;;;;;;-2.63;56.03;100006.86;1723883;79;21101;-83
2021/12/23 10:46:06;;;;;;;14.78;5.67;;;;;;;-2.21;58.44;99985.23;1751769;79;21201;31
2021/12/23 11:55:31;;;;;;;17.73;7.58;;;;;;;-0.38;51.46;99881.19;1724137;80;21128;-91
2021/12/23 11:57:58;;;;;;;8.45;4.33;;;;;;;0.60;53.83;99865.33;1713314;82;21563;-92
2021/12/23 12:00:42;;;;;;;15.20;5.83;;;;;;;1.56;48.69;99864.33;1719360;82;21930;-91
2021/12/23 12:03:05;;;;;;;12.18;5.75;;;;;;;2.71;47.33;99859.49;1718521;80;21290;-91
2021/12/23 12:05:35;;;;;;;11.70;5.30;;;;;;;3.52;49.36;99854.89;1731721;79;21090;-89
2021/12/23 12:08:15;;;;;;;12.15;5.62;;;;;;;4.42;43.09;99841.53;1739230;78;21024;-91
2021/12/23 12:10:46;;;;;;;11.18;5.00;;;;;;;5.25;41.82;99842.37;1786705;79;21015;-87
2021/12/23 12:13:20;;;;;;;11.08;5.03;;;;;;;6.04;36.91;99845.06;1783829;79;21023;-86
2021/12/23 12:15:48;;;;;;;12.18;5.60;;;;;;;6.55;34.66;99842.71;1771951;78;21160;-84
2021/12/23 12:18:22;;;;;;;10.95;5.40;;;;;;;7.08;45.74;99834.62;1798752;78;20939;-87
2021/12/23 12:20:54;;;;;;;;;;;;;;;7.13;43.91;99829.03;1759601;78;21190;-89
2021/12/23 12:23:39;;;;;;;10.50;5.25;;;;;;;6.45;37.08;99830.19;1740102;78;20243;31
2021/12/23 12:26:12;;;;;;;12.20;5.85;;;;;;;5.79;32.82;99831.14;1722648;80;21061;-92
2021/12/23 12:28:46;;;;;;;11.38;5.90;;;;;;;4.92;38.15;99833.90;1788649;78;21099;-93
2021/12/23 12:31:40;;;;;;;11.45;5.50;;;;;;;4.35;35.27;99826.41;1743566;81;21130;-92
2021/12/23 12:34:36;;;;;;;11.05;5.37;;;;;;;3.90;41.82;99827.98;1731830;82;21103;-92
2021/12/23 12:37:05;;;;;;;11.70;5.10;;;;;;;3.22;36.63;99832.11;1760135;77;21085;-93
2021/12/23 12:39:40;;;;;;;15.58;4.72;;;;;;;2.84;37.32;99825.90;1751457;79;21107;-85
2021/12/23 12:42:11;;;;;;;13.20;5.40;;;;;;;2.36;37.39;99816.45;1750613;78;21040;-92
2021/12/23 12:47:36;;;;;;;14.58;4.83;;;;;;;1.86;39.91;99818.43;1726879;81;21154;-87
2021/12/23 12:50:27;;;;;;;23.22;5.97;;;;;;;1.64;41.61;99814.95;1698929;79;21166;-89
2021/12/23 12:59:12;;;;;;;12.37;4.47;;;;;;;0.88;42.08;99796.52;1760985;78;21098;31
2021/12/23 13:01:56;;;;;;;15.65;6.40;;;;;;;0.78;43.58;99784.33;1714116;78;21075;31
2021/12/23 13:04:31;;;;;;;13.55;5.35;;;;;;;0.63;43.03;99778.80;1693014;80;23351;-83
2021/12/23 13:13:37;;;;;;;14.55;6.03;;;;;;;0.26;43.79;99777.42;1770424;77;21184;31
2021/12/23 13:19:40;;;;;;;10.35;4.60;;;;;;;0.11;43.67;99764.21;1702235;78;21193;31
2021/12/23 13:25:17;;;;;;;9.48;4.50;;;;;;;-0.01;45.00;99755.36;1747986;78;21035;-84
2021/12/23 13:27:44;;;;;;;13.28;5.15;;;;;;;-0.02;44.72;99742.14;1760414;80;21070;-82
2021/12/23 13:30:13;;;;;;;10.15;4.08;;;;;;;-0.02;44.82;99744.70;1733862;78;21046;-83
2021/12/23 13:35:50;;;;;;;12.75;4.42;;;;;;;-0.18;44.57;99755.30;1725290;79;21122;-84
2021/12/23 13:38:32;;;;;;;12.80;5.60;;;;;;;-0.21;44.47;99767.58;1713937;78;21068;-85
2021/12/23 13:44:24;;;;;;;11.28;4.55;;;;;;;-0.20;45.20;99771.00;1735462;78;21069;-83
2021/12/23 13:47:06;;;;;;;11.10;4.53;;;;;;;-0.31;45.48;99766.86;1749557;79;21022;-82
2021/12/23 13:49:53;;;;;;;;;;;;;;;-0.30;46.15;99764.78;1750428;78;21151;31
2021/12/23 13:55:27;;;;;;;16.05;6.72;;;;;;;-0.35;46.18;99753.55;1737077;80;21090;-83
2021/12/23 13:57:58;;;;;;;15.35;6.90;;;;;;;-0.34;46.61;99748.87;1748358;79;21047;-85
2021/12/23 14:00:34;;;;;;;14.78;5.53;;;;;;;-0.34;46.76;99755.68;1772693;80;21009;-82
2021/12/23 14:03:11;;;;;;;24.90;9.80;;;;;;;-0.42;45.91;99746.12;1733993;80;21192;-82
2021/12/23 14:05:40;;;;;;;13.48;4.75;;;;;;;-0.47;46.53;99742.55;1742179;80;21086;-82
2021/12/23 14:08:10;;;;;;;21.62;7.75;;;;;;;-0.57;46.72;99734.59;1761570;80;21019;-84
2021/12/23 14:10:40;;;;;;;19.80;9.60;;;;;;;-0.66;47.67;99736.05;1753990;80;21086;-82
2021/12/23 14:13:10;;;;;;;20.02;6.45;;;;;;;-0.74;47.03;99730.23;1746901;82;21070;-83
2021/12/23 19:06:10;;;;;;;26.73;11.80;;;;;;;-3.53;58.04;99391.14;1857178;76;22836;-87
2021/12/23 19:08:44;;;;;;;32.78;13.53;;;;;;;-3.48;57.62;99388.75;1813632;79;21029;-84
2021/12/23 19:11:14;;;;;;;39.45;14.28;;;;;;;-3.48;57.62;99388.75;1811217;78;21031;-82
2021/12/23 19:13:41;;;;;;;35.80;12.45;;;;;;;-3.28;58.28;99374.23;1821562;79;21015;-85
2021/12/23 19:16:12;;;;;;;34.53;13.70;;;;;;;-3.28;58.28;99374.23;1817028;78;21017;-83
2021/12/23 19:18:42;;;;;;;26.93;12.53;;;;;;;-3.19;58.54;99370.70;1762930;77;21091;-83
2021/12/23 19:21:11;;;;;;;41.18;14.35;;;;;;;-3.06;58.85;99359.29;1747409;80;21030;-83
2021/12/23 19:23:38;;;;;;;30.80;12.80;;;;;;;-2.92;59.22;99360.61;1801718;76;21025;-85